sensor_id;sensor_type;location;lat;lon;timestamp;P1;durP1;ratioP1;P2;durP2;ratioP2
16669;SDS011;8448;52.034;5.158;2022-08-16T00:02:04;17.63;;;15.73;;
16669;SDS011;8448;52.034;5.158;2022-08-16T00:04:32;17.17;;;15.38;;
16669;SDS011;8448;52.034;5.158;2022-08-16T00:07:00;18.27;;;16.38;;
16669;SDS011;8448;52.034;5.158;2022-08-16T00:09:27;19.45;;;16.58;;
16669;SDS011;8448;52.034;5.158;2022-08-16T00:11:55;17.92;;;16.02;;
16669;SDS011;8448;52.034;5.158;2022-08-16T00:14:24;19.15;;;16.58;;
16669;SDS011;8448;52.034;5.158;2022-08-16T00:16:54;19.92;;;16.02;;
16669;SDS011;8448;52.034;5.158;2022-08-16T00:19:24;18.45;;;16.00;;
16669;SDS011;8448;52.034;5.158;2022-08-16T00:21:54;19.70;;;16.70;;
16669;SDS011;8448;52.034;5.158;2022-08-16T00:24:22;20.42;;;15.70;;
16669;SDS011;8448;52.034;5.158;2022-08-16T00:26:50;19.80;;;16.67;;
16669;SDS011;8448;52.034;5.158;2022-08-16T00:29:18;19.25;;;15.73;;
16669;SDS011;8448;52.034;5.158;2022-08-16T00:31:47;18.05;;;15.57;;
16669;SDS011;8448;52.034;5.158;2022-08-16T00:34:17;18.38;;;16.38;;
16669;SDS011;8448;52.034;5.158;2022-08-16T00:36:45;19.48;;;16.83;;
16669;SDS011;8448;52.034;5.158;2022-08-16T00:39:14;19.77;;;17.63;;
16669;SDS011;8448;52.034;5.158;2022-08-16T00:41:43;19.55;;;16.10;;
16669;SDS011;8448;52.034;5.158;2022-08-16T00:44:11;17.92;;;15.25;;
16669;SDS011;8448;52.034;5.158;2022-08-16T00:46:40;17.88;;;15.98;;
16669;SDS011;8448;52.034;5.158;2022-08-16T00:49:12;19.13;;;15.75;;
16669;SDS011;8448;52.034;5.158;2022-08-16T00:51:41;18.67;;;16.65;;
16669;SDS011;8448;52.034;5.158;2022-08-16T00:54:09;18.20;;;16.20;;
16669;SDS011;8448;52.034;5.158;2022-08-16T00:56:39;21.60;;;18.17;;
16669;SDS011;8448;52.034;5.158;2022-08-16T00:59:10;20.25;;;17.67;;
16669;SDS011;8448;52.034;5.158;2022-08-16T01:01:39;22.50;;;18.52;;
16669;SDS011;8448;52.034;5.158;2022-08-16T01:04:07;21.25;;;18.95;;
16669;SDS011;8448;52.034;5.158;2022-08-16T01:06:35;22.90;;;19.40;;
16669;SDS011;8448;52.034;5.158;2022-08-16T01:09:05;21.95;;;19.65;;
16669;SDS011;8448;52.034;5.158;2022-08-16T01:11:33;21.40;;;18.58;;
16669;SDS011;8448;52.034;5.158;2022-08-16T01:14:03;22.15;;;19.65;;
16669;SDS011;8448;52.034;5.158;2022-08-16T01:16:34;24.20;;;21.55;;
16669;SDS011;8448;52.034;5.158;2022-08-16T01:19:03;25.15;;;21.05;;
16669;SDS011;8448;52.034;5.158;2022-08-16T01:21:51;24.08;;;20.38;;
16669;SDS011;8448;52.034;5.158;2022-08-16T01:24:27;24.00;;;20.30;;
16669;SDS011;8448;52.034;5.158;2022-08-16T01:26:59;26.40;;;22.08;;
16669;SDS011;8448;52.034;5.158;2022-08-16T01:29:31;26.30;;;22.70;;
16669;SDS011;8448;52.034;5.158;2022-08-16T01:32:03;25.95;;;22.02;;
16669;SDS011;8448;52.034;5.158;2022-08-16T01:34:31;25.73;;;21.10;;
16669;SDS011;8448;52.034;5.158;2022-08-16T01:36:59;25.38;;;21.70;;
16669;SDS011;8448;52.034;5.158;2022-08-16T01:39:30;27.98;;;22.85;;
16669;SDS011;8448;52.034;5.158;2022-08-16T01:41:58;29.52;;;24.75;;
16669;SDS011;8448;52.034;5.158;2022-08-16T01:44:25;26.17;;;21.35;;
16669;SDS011;8448;52.034;5.158;2022-08-16T01:46:53;25.85;;;22.13;;
16669;SDS011;8448;52.034;5.158;2022-08-16T01:49:22;26.02;;;22.77;;
16669;SDS011;8448;52.034;5.158;2022-08-16T01:51:53;25.80;;;22.42;;
16669;SDS011;8448;52.034;5.158;2022-08-16T01:54:31;28.35;;;23.10;;
16669;SDS011;8448;52.034;5.158;2022-08-16T01:56:59;29.67;;;24.02;;
16669;SDS011;8448;52.034;5.158;2022-08-16T01:59:27;29.52;;;24.35;;
16669;SDS011;8448;52.034;5.158;2022-08-16T02:01:56;26.92;;;23.30;;
16669;SDS011;8448;52.034;5.158;2022-08-16T02:04:24;30.15;;;24.02;;
16669;SDS011;8448;52.034;5.158;2022-08-16T02:06:51;28.38;;;23.75;;
16669;SDS011;8448;52.034;5.158;2022-08-16T02:09:19;28.73;;;22.40;;
16669;SDS011;8448;52.034;5.158;2022-08-16T02:11:53;31.83;;;26.17;;
16669;SDS011;8448;52.034;5.158;2022-08-16T02:14:22;29.25;;;24.60;;
16669;SDS011;8448;52.034;5.158;2022-08-16T02:16:52;30.98;;;23.88;;
16669;SDS011;8448;52.034;5.158;2022-08-16T02:19:19;29.20;;;23.77;;
16669;SDS011;8448;52.034;5.158;2022-08-16T02:21:48;28.65;;;24.25;;
16669;SDS011;8448;52.034;5.158;2022-08-16T02:24:16;27.60;;;22.40;;
16669;SDS011;8448;52.034;5.158;2022-08-16T02:26:43;28.98;;;22.70;;
16669;SDS011;8448;52.034;5.158;2022-08-16T02:29:12;28.25;;;22.70;;
16669;SDS011;8448;52.034;5.158;2022-08-16T02:31:42;25.42;;;22.27;;
16669;SDS011;8448;52.034;5.158;2022-08-16T02:34:10;28.05;;;23.23;;
16669;SDS011;8448;52.034;5.158;2022-08-16T02:36:38;28.58;;;23.58;;
16669;SDS011;8448;52.034;5.158;2022-08-16T02:39:07;27.15;;;22.83;;
16669;SDS011;8448;52.034;5.158;2022-08-16T02:41:36;26.25;;;22.77;;
16669;SDS011;8448;52.034;5.158;2022-08-16T02:44:04;30.63;;;22.95;;
16669;SDS011;8448;52.034;5.158;2022-08-16T02:46:34;25.30;;;22.20;;
16669;SDS011;8448;52.034;5.158;2022-08-16T02:49:02;26.65;;;22.65;;
16669;SDS011;8448;52.034;5.158;2022-08-16T02:51:30;27.20;;;23.00;;
16669;SDS011;8448;52.034;5.158;2022-08-16T02:53:59;25.88;;;22.05;;
16669;SDS011;8448;52.034;5.158;2022-08-16T02:56:27;26.20;;;22.35;;
16669;SDS011;8448;52.034;5.158;2022-08-16T02:58:54;26.60;;;21.70;;
16669;SDS011;8448;52.034;5.158;2022-08-16T03:01:24;27.90;;;22.48;;
16669;SDS011;8448;52.034;5.158;2022-08-16T03:03:54;25.52;;;21.73;;
16669;SDS011;8448;52.034;5.158;2022-08-16T03:06:24;24.17;;;21.27;;
16669;SDS011;8448;52.034;5.158;2022-08-16T03:08:54;26.42;;;21.63;;
16669;SDS011;8448;52.034;5.158;2022-08-16T03:11:23;27.98;;;21.85;;
16669;SDS011;8448;52.034;5.158;2022-08-16T03:13:52;22.23;;;19.42;;
16669;SDS011;8448;52.034;5.158;2022-08-16T03:16:20;25.35;;;20.02;;
16669;SDS011;8448;52.034;5.158;2022-08-16T03:18:49;25.33;;;20.98;;
16669;SDS011;8448;52.034;5.158;2022-08-16T03:21:19;24.92;;;19.45;;
16669;SDS011;8448;52.034;5.158;2022-08-16T03:23:47;22.67;;;19.38;;
16669;SDS011;8448;52.034;5.158;2022-08-16T03:26:14;25.05;;;20.73;;
16669;SDS011;8448;52.034;5.158;2022-08-16T03:28:42;21.55;;;19.23;;
16669;SDS011;8448;52.034;5.158;2022-08-16T03:31:09;22.40;;;19.38;;
16669;SDS011;8448;52.034;5.158;2022-08-16T03:33:37;22.80;;;19.95;;
16669;SDS011;8448;52.034;5.158;2022-08-16T03:36:05;24.17;;;19.90;;
16669;SDS011;8448;52.034;5.158;2022-08-16T03:38:37;26.58;;;21.75;;
16669;SDS011;8448;52.034;5.158;2022-08-16T03:41:07;24.02;;;20.95;;
16669;SDS011;8448;52.034;5.158;2022-08-16T03:43:34;22.48;;;19.35;;
16669;SDS011;8448;52.034;5.158;2022-08-16T03:46:02;24.92;;;20.58;;
16669;SDS011;8448;52.034;5.158;2022-08-16T03:48:36;22.42;;;18.90;;
16669;SDS011;8448;52.034;5.158;2022-08-16T03:51:10;22.75;;;19.63;;
16669;SDS011;8448;52.034;5.158;2022-08-16T03:53:45;24.80;;;19.70;;
16669;SDS011;8448;52.034;5.158;2022-08-16T03:56:13;24.15;;;19.52;;
16669;SDS011;8448;52.034;5.158;2022-08-16T03:58:41;23.10;;;19.85;;
16669;SDS011;8448;52.034;5.158;2022-08-16T04:01:08;24.63;;;20.52;;
16669;SDS011;8448;52.034;5.158;2022-08-16T04:03:36;24.67;;;20.40;;
16669;SDS011;8448;52.034;5.158;2022-08-16T04:06:03;22.73;;;19.58;;
16669;SDS011;8448;52.034;5.158;2022-08-16T04:08:31;23.70;;;20.30;;
16669;SDS011;8448;52.034;5.158;2022-08-16T04:11:00;26.25;;;21.38;;
16669;SDS011;8448;52.034;5.158;2022-08-16T04:13:28;25.30;;;20.85;;
16669;SDS011;8448;52.034;5.158;2022-08-16T04:15:57;27.10;;;20.88;;
16669;SDS011;8448;52.034;5.158;2022-08-16T04:18:26;26.48;;;21.35;;
16669;SDS011;8448;52.034;5.158;2022-08-16T04:20:56;28.02;;;21.85;;
16669;SDS011;8448;52.034;5.158;2022-08-16T04:23:25;27.35;;;22.08;;
16669;SDS011;8448;52.034;5.158;2022-08-16T04:25:54;26.75;;;22.15;;
16669;SDS011;8448;52.034;5.158;2022-08-16T04:28:23;25.75;;;21.25;;
16669;SDS011;8448;52.034;5.158;2022-08-16T04:30:51;27.85;;;21.90;;
16669;SDS011;8448;52.034;5.158;2022-08-16T04:33:19;27.48;;;21.98;;
16669;SDS011;8448;52.034;5.158;2022-08-16T04:35:47;28.90;;;24.13;;
16669;SDS011;8448;52.034;5.158;2022-08-16T04:38:15;28.08;;;22.92;;
16669;SDS011;8448;52.034;5.158;2022-08-16T04:40:44;30.25;;;24.98;;
16669;SDS011;8448;52.034;5.158;2022-08-16T04:43:12;32.10;;;24.17;;
16669;SDS011;8448;52.034;5.158;2022-08-16T04:45:41;29.73;;;22.92;;
16669;SDS011;8448;52.034;5.158;2022-08-16T04:48:13;26.45;;;23.50;;
16669;SDS011;8448;52.034;5.158;2022-08-16T04:50:49;29.77;;;24.55;;
16669;SDS011;8448;52.034;5.158;2022-08-16T04:53:19;28.52;;;24.15;;
16669;SDS011;8448;52.034;5.158;2022-08-16T04:55:50;30.00;;;25.25;;
16669;SDS011;8448;52.034;5.158;2022-08-16T04:58:17;29.75;;;24.40;;
16669;SDS011;8448;52.034;5.158;2022-08-16T05:00:46;31.17;;;24.27;;
16669;SDS011;8448;52.034;5.158;2022-08-16T05:03:18;30.80;;;24.27;;
16669;SDS011;8448;52.034;5.158;2022-08-16T05:05:47;30.92;;;25.08;;
16669;SDS011;8448;52.034;5.158;2022-08-16T05:08:19;27.98;;;23.92;;
16669;SDS011;8448;52.034;5.158;2022-08-16T05:10:53;31.33;;;24.38;;
16669;SDS011;8448;52.034;5.158;2022-08-16T05:13:21;26.77;;;22.85;;
16669;SDS011;8448;52.034;5.158;2022-08-16T05:15:50;33.20;;;24.23;;
16669;SDS011;8448;52.034;5.158;2022-08-16T05:18:21;28.73;;;24.23;;
16669;SDS011;8448;52.034;5.158;2022-08-16T05:20:53;30.60;;;25.45;;
16669;SDS011;8448;52.034;5.158;2022-08-16T05:23:20;29.88;;;24.75;;
16669;SDS011;8448;52.034;5.158;2022-08-16T05:25:48;25.65;;;22.33;;
16669;SDS011;8448;52.034;5.158;2022-08-16T05:28:16;31.63;;;24.80;;
16669;SDS011;8448;52.034;5.158;2022-08-16T05:30:51;29.15;;;23.98;;
16669;SDS011;8448;52.034;5.158;2022-08-16T05:33:27;30.20;;;25.23;;
16669;SDS011;8448;52.034;5.158;2022-08-16T05:35:56;30.45;;;24.60;;
16669;SDS011;8448;52.034;5.158;2022-08-16T05:38:29;30.45;;;24.55;;
16669;SDS011;8448;52.034;5.158;2022-08-16T05:41:00;34.00;;;24.75;;
16669;SDS011;8448;52.034;5.158;2022-08-16T05:43:35;29.10;;;23.73;;
16669;SDS011;8448;52.034;5.158;2022-08-16T05:46:04;28.15;;;23.77;;
16669;SDS011;8448;52.034;5.158;2022-08-16T05:48:32;27.83;;;23.15;;
16669;SDS011;8448;52.034;5.158;2022-08-16T05:51:03;32.40;;;24.73;;
16669;SDS011;8448;52.034;5.158;2022-08-16T05:53:32;31.58;;;26.15;;
16669;SDS011;8448;52.034;5.158;2022-08-16T05:56:07;26.88;;;22.13;;
16669;SDS011;8448;52.034;5.158;2022-08-16T05:58:38;30.83;;;24.92;;
16669;SDS011;8448;52.034;5.158;2022-08-16T06:01:09;31.23;;;26.08;;
16669;SDS011;8448;52.034;5.158;2022-08-16T06:03:39;32.28;;;24.52;;
16669;SDS011;8448;52.034;5.158;2022-08-16T06:06:25;34.58;;;26.88;;
16669;SDS011;8448;52.034;5.158;2022-08-16T06:08:53;32.92;;;25.77;;
16669;SDS011;8448;52.034;5.158;2022-08-16T06:11:20;27.92;;;24.30;;
16669;SDS011;8448;52.034;5.158;2022-08-16T06:13:53;34.85;;;27.58;;
16669;SDS011;8448;52.034;5.158;2022-08-16T06:16:34;33.17;;;26.75;;
16669;SDS011;8448;52.034;5.158;2022-08-16T06:19:01;33.08;;;27.50;;
16669;SDS011;8448;52.034;5.158;2022-08-16T06:21:30;31.67;;;25.98;;
16669;SDS011;8448;52.034;5.158;2022-08-16T06:24:00;33.25;;;27.70;;
16669;SDS011;8448;52.034;5.158;2022-08-16T06:26:31;36.08;;;28.13;;
16669;SDS011;8448;52.034;5.158;2022-08-16T06:28:59;35.13;;;28.45;;
16669;SDS011;8448;52.034;5.158;2022-08-16T06:31:34;36.97;;;30.02;;
16669;SDS011;8448;52.034;5.158;2022-08-16T06:34:02;37.05;;;29.05;;
16669;SDS011;8448;52.034;5.158;2022-08-16T06:36:33;35.42;;;29.40;;
16669;SDS011;8448;52.034;5.158;2022-08-16T06:39:14;36.13;;;30.33;;
16669;SDS011;8448;52.034;5.158;2022-08-16T06:41:50;38.25;;;29.92;;
16669;SDS011;8448;52.034;5.158;2022-08-16T06:44:49;39.58;;;31.02;;
16669;SDS011;8448;52.034;5.158;2022-08-16T06:47:37;39.95;;;30.75;;
16669;SDS011;8448;52.034;5.158;2022-08-16T06:50:05;42.15;;;30.85;;
16669;SDS011;8448;52.034;5.158;2022-08-16T06:52:37;40.20;;;32.22;;
16669;SDS011;8448;52.034;5.158;2022-08-16T06:55:06;41.85;;;33.58;;
16669;SDS011;8448;52.034;5.158;2022-08-16T06:57:39;36.53;;;31.55;;
16669;SDS011;8448;52.034;5.158;2022-08-16T07:00:09;38.67;;;32.17;;
16669;SDS011;8448;52.034;5.158;2022-08-16T07:02:47;40.22;;;33.25;;
16669;SDS011;8448;52.034;5.158;2022-08-16T07:05:16;42.25;;;32.72;;
16669;SDS011;8448;52.034;5.158;2022-08-16T07:07:58;43.25;;;33.33;;
16669;SDS011;8448;52.034;5.158;2022-08-16T07:10:28;38.10;;;30.75;;
16669;SDS011;8448;52.034;5.158;2022-08-16T07:12:55;39.63;;;32.42;;
16669;SDS011;8448;52.034;5.158;2022-08-16T07:15:23;37.47;;;31.45;;
16669;SDS011;8448;52.034;5.158;2022-08-16T07:17:52;40.05;;;32.83;;
16669;SDS011;8448;52.034;5.158;2022-08-16T07:20:19;40.17;;;34.08;;
16669;SDS011;8448;52.034;5.158;2022-08-16T07:22:50;41.90;;;34.00;;
16669;SDS011;8448;52.034;5.158;2022-08-16T07:25:41;39.35;;;32.28;;
16669;SDS011;8448;52.034;5.158;2022-08-16T07:28:10;44.95;;;34.53;;
16669;SDS011;8448;52.034;5.158;2022-08-16T07:30:39;39.60;;;32.40;;
16669;SDS011;8448;52.034;5.158;2022-08-16T07:33:10;45.97;;;32.78;;
16669;SDS011;8448;52.034;5.158;2022-08-16T07:35:38;43.70;;;33.17;;
16669;SDS011;8448;52.034;5.158;2022-08-16T07:38:06;38.10;;;31.77;;
16669;SDS011;8448;52.034;5.158;2022-08-16T07:40:43;39.28;;;32.08;;
16669;SDS011;8448;52.034;5.158;2022-08-16T07:43:10;40.92;;;32.42;;
16669;SDS011;8448;52.034;5.158;2022-08-16T07:45:38;37.60;;;31.00;;
16669;SDS011;8448;52.034;5.158;2022-08-16T07:48:05;39.05;;;33.22;;
16669;SDS011;8448;52.034;5.158;2022-08-16T07:50:37;39.75;;;33.97;;
16669;SDS011;8448;52.034;5.158;2022-08-16T07:53:05;38.95;;;32.33;;
16669;SDS011;8448;52.034;5.158;2022-08-16T07:55:32;39.65;;;31.45;;
16669;SDS011;8448;52.034;5.158;2022-08-16T07:58:00;35.30;;;30.55;;
16669;SDS011;8448;52.034;5.158;2022-08-16T08:00:27;37.20;;;32.33;;
16669;SDS011;8448;52.034;5.158;2022-08-16T08:02:55;35.97;;;29.77;;
16669;SDS011;8448;52.034;5.158;2022-08-16T08:05:25;37.60;;;31.90;;
16669;SDS011;8448;52.034;5.158;2022-08-16T08:07:55;40.40;;;31.45;;
16669;SDS011;8448;52.034;5.158;2022-08-16T08:10:23;39.78;;;32.90;;
16669;SDS011;8448;52.034;5.158;2022-08-16T08:12:51;39.55;;;32.92;;
16669;SDS011;8448;52.034;5.158;2022-08-16T08:15:22;37.35;;;31.23;;
16669;SDS011;8448;52.034;5.158;2022-08-16T08:17:49;34.67;;;29.33;;
16669;SDS011;8448;52.034;5.158;2022-08-16T08:20:23;35.10;;;29.88;;
16669;SDS011;8448;52.034;5.158;2022-08-16T08:22:51;37.38;;;30.15;;
16669;SDS011;8448;52.034;5.158;2022-08-16T08:25:21;33.30;;;28.33;;
16669;SDS011;8448;52.034;5.158;2022-08-16T08:27:48;37.63;;;30.17;;
16669;SDS011;8448;52.034;5.158;2022-08-16T08:30:16;33.35;;;28.90;;
16669;SDS011;8448;52.034;5.158;2022-08-16T08:32:44;32.05;;;27.88;;
16669;SDS011;8448;52.034;5.158;2022-08-16T08:35:12;35.15;;;28.02;;
16669;SDS011;8448;52.034;5.158;2022-08-16T08:37:40;31.13;;;27.45;;
16669;SDS011;8448;52.034;5.158;2022-08-16T08:40:08;35.42;;;29.30;;
16669;SDS011;8448;52.034;5.158;2022-08-16T08:42:37;33.80;;;28.38;;
16669;SDS011;8448;52.034;5.158;2022-08-16T08:45:09;31.02;;;26.38;;
16669;SDS011;8448;52.034;5.158;2022-08-16T08:47:38;34.95;;;28.73;;
16669;SDS011;8448;52.034;5.158;2022-08-16T08:50:06;36.95;;;28.50;;
16669;SDS011;8448;52.034;5.158;2022-08-16T08:52:35;36.40;;;30.13;;
16669;SDS011;8448;52.034;5.158;2022-08-16T08:55:05;31.05;;;25.90;;
16669;SDS011;8448;52.034;5.158;2022-08-16T08:57:33;31.67;;;25.38;;
16669;SDS011;8448;52.034;5.158;2022-08-16T09:00:31;29.70;;;25.52;;
16669;SDS011;8448;52.034;5.158;2022-08-16T09:03:04;34.05;;;28.08;;
16669;SDS011;8448;52.034;5.158;2022-08-16T09:05:34;34.45;;;28.63;;
16669;SDS011;8448;52.034;5.158;2022-08-16T09:08:04;35.65;;;29.02;;
16669;SDS011;8448;52.034;5.158;2022-08-16T09:10:50;37.33;;;31.20;;
16669;SDS011;8448;52.034;5.158;2022-08-16T09:13:19;30.50;;;25.90;;
16669;SDS011;8448;52.034;5.158;2022-08-16T09:15:49;28.15;;;24.83;;
16669;SDS011;8448;52.034;5.158;2022-08-16T09:18:18;29.90;;;24.23;;
16669;SDS011;8448;52.034;5.158;2022-08-16T09:20:46;27.90;;;24.60;;
16669;SDS011;8448;52.034;5.158;2022-08-16T09:23:17;31.85;;;26.73;;
16669;SDS011;8448;52.034;5.158;2022-08-16T09:25:45;29.90;;;23.70;;
16669;SDS011;8448;52.034;5.158;2022-08-16T09:28:14;31.23;;;26.00;;
16669;SDS011;8448;52.034;5.158;2022-08-16T09:30:55;34.50;;;28.40;;
16669;SDS011;8448;52.034;5.158;2022-08-16T09:33:23;33.17;;;27.10;;
16669;SDS011;8448;52.034;5.158;2022-08-16T09:35:50;31.30;;;26.20;;
16669;SDS011;8448;52.034;5.158;2022-08-16T09:38:18;29.60;;;24.95;;
16669;SDS011;8448;52.034;5.158;2022-08-16T09:40:45;32.65;;;25.83;;
16669;SDS011;8448;52.034;5.158;2022-08-16T09:43:14;27.92;;;24.38;;
16669;SDS011;8448;52.034;5.158;2022-08-16T09:45:42;31.30;;;25.17;;
16669;SDS011;8448;52.034;5.158;2022-08-16T09:48:13;31.40;;;25.40;;
16669;SDS011;8448;52.034;5.158;2022-08-16T09:50:41;29.58;;;25.52;;
16669;SDS011;8448;52.034;5.158;2022-08-16T09:53:09;28.70;;;24.55;;
16669;SDS011;8448;52.034;5.158;2022-08-16T09:55:38;27.65;;;22.85;;
16669;SDS011;8448;52.034;5.158;2022-08-16T09:58:06;27.48;;;22.90;;
16669;SDS011;8448;52.034;5.158;2022-08-16T10:00:33;26.58;;;23.73;;
16669;SDS011;8448;52.034;5.158;2022-08-16T10:03:00;30.38;;;25.50;;
16669;SDS011;8448;52.034;5.158;2022-08-16T10:05:29;24.40;;;21.23;;
16669;SDS011;8448;52.034;5.158;2022-08-16T10:07:57;26.30;;;22.83;;
16669;SDS011;8448;52.034;5.158;2022-08-16T10:10:24;23.92;;;21.27;;
16669;SDS011;8448;52.034;5.158;2022-08-16T10:12:51;23.67;;;21.15;;
16669;SDS011;8448;52.034;5.158;2022-08-16T10:15:36;26.63;;;23.50;;
16669;SDS011;8448;52.034;5.158;2022-08-16T10:18:06;26.33;;;23.52;;
16669;SDS011;8448;52.034;5.158;2022-08-16T10:20:36;26.70;;;22.33;;
16669;SDS011;8448;52.034;5.158;2022-08-16T10:23:06;24.55;;;21.10;;
16669;SDS011;8448;52.034;5.158;2022-08-16T10:25:36;28.15;;;23.58;;
16669;SDS011;8448;52.034;5.158;2022-08-16T10:28:05;23.20;;;20.70;;
16669;SDS011;8448;52.034;5.158;2022-08-16T10:30:34;23.67;;;20.15;;
16669;SDS011;8448;52.034;5.158;2022-08-16T10:33:01;20.50;;;18.42;;
16669;SDS011;8448;52.034;5.158;2022-08-16T10:35:29;24.05;;;21.38;;
16669;SDS011;8448;52.034;5.158;2022-08-16T10:37:58;26.45;;;23.58;;
16669;SDS011;8448;52.034;5.158;2022-08-16T10:40:25;26.67;;;21.52;;
16669;SDS011;8448;52.034;5.158;2022-08-16T10:42:53;24.38;;;20.27;;
16669;SDS011;8448;52.034;5.158;2022-08-16T10:45:21;23.60;;;20.45;;
16669;SDS011;8448;52.034;5.158;2022-08-16T10:47:49;27.00;;;23.25;;
16669;SDS011;8448;52.034;5.158;2022-08-16T10:50:16;21.38;;;19.00;;
16669;SDS011;8448;52.034;5.158;2022-08-16T10:52:44;23.92;;;20.70;;
16669;SDS011;8448;52.034;5.158;2022-08-16T10:55:13;26.10;;;19.50;;
16669;SDS011;8448;52.034;5.158;2022-08-16T10:57:40;18.88;;;15.55;;
16669;SDS011;8448;52.034;5.158;2022-08-16T11:00:08;21.50;;;18.60;;
16669;SDS011;8448;52.034;5.158;2022-08-16T11:02:39;28.75;;;24.38;;
16669;SDS011;8448;52.034;5.158;2022-08-16T11:05:08;25.25;;;21.38;;
16669;SDS011;8448;52.034;5.158;2022-08-16T11:07:37;23.38;;;19.55;;
16669;SDS011;8448;52.034;5.158;2022-08-16T11:10:07;25.30;;;21.10;;
16669;SDS011;8448;52.034;5.158;2022-08-16T11:12:36;23.60;;;21.10;;
16669;SDS011;8448;52.034;5.158;2022-08-16T11:15:03;28.20;;;23.70;;
16669;SDS011;8448;52.034;5.158;2022-08-16T11:17:31;24.40;;;21.15;;
16669;SDS011;8448;52.034;5.158;2022-08-16T11:19:59;31.48;;;28.08;;
16669;SDS011;8448;52.034;5.158;2022-08-16T11:22:26;28.33;;;25.33;;
16669;SDS011;8448;52.034;5.158;2022-08-16T11:24:53;28.70;;;25.60;;
16669;SDS011;8448;52.034;5.158;2022-08-16T11:27:21;28.02;;;25.10;;
16669;SDS011;8448;52.034;5.158;2022-08-16T11:29:54;29.10;;;23.70;;
16669;SDS011;8448;52.034;5.158;2022-08-16T11:32:22;28.75;;;25.65;;
16669;SDS011;8448;52.034;5.158;2022-08-16T11:34:51;27.60;;;24.70;;
16669;SDS011;8448;52.034;5.158;2022-08-16T11:37:20;25.63;;;22.88;;
16669;SDS011;8448;52.034;5.158;2022-08-16T11:39:47;30.02;;;26.80;;
16669;SDS011;8448;52.034;5.158;2022-08-16T11:42:15;29.33;;;26.23;;
16669;SDS011;8448;52.034;5.158;2022-08-16T11:44:42;25.83;;;23.13;;
16669;SDS011;8448;52.034;5.158;2022-08-16T11:47:11;26.92;;;24.23;;
16669;SDS011;8448;52.034;5.158;2022-08-16T11:49:38;26.98;;;24.17;;
16669;SDS011;8448;52.034;5.158;2022-08-16T11:52:05;28.70;;;25.65;;
16669;SDS011;8448;52.034;5.158;2022-08-16T11:54:33;28.52;;;24.33;;
16669;SDS011;8448;52.034;5.158;2022-08-16T11:57:00;27.08;;;24.13;;
16669;SDS011;8448;52.034;5.158;2022-08-16T11:59:27;26.48;;;23.55;;
16669;SDS011;8448;52.034;5.158;2022-08-16T12:01:55;26.35;;;23.45;;
16669;SDS011;8448;52.034;5.158;2022-08-16T12:04:24;30.70;;;27.55;;
16669;SDS011;8448;52.034;5.158;2022-08-16T12:06:51;27.10;;;24.25;;
16669;SDS011;8448;52.034;5.158;2022-08-16T12:09:18;22.17;;;19.83;;
16669;SDS011;8448;52.034;5.158;2022-08-16T12:11:45;25.88;;;22.27;;
16669;SDS011;8448;52.034;5.158;2022-08-16T12:14:13;27.95;;;24.98;;
16669;SDS011;8448;52.034;5.158;2022-08-16T12:16:41;26.02;;;23.10;;
16669;SDS011;8448;52.034;5.158;2022-08-16T12:19:08;30.80;;;27.60;;
16669;SDS011;8448;52.034;5.158;2022-08-16T12:21:37;29.30;;;25.17;;
16669;SDS011;8448;52.034;5.158;2022-08-16T12:24:05;24.90;;;20.77;;
16669;SDS011;8448;52.034;5.158;2022-08-16T12:26:33;29.13;;;25.02;;
16669;SDS011;8448;52.034;5.158;2022-08-16T12:29:00;31.63;;;28.25;;
16669;SDS011;8448;52.034;5.158;2022-08-16T12:31:28;28.63;;;23.52;;
16669;SDS011;8448;52.034;5.158;2022-08-16T12:33:55;27.17;;;24.23;;
16669;SDS011;8448;52.034;5.158;2022-08-16T12:36:22;29.17;;;24.10;;
16669;SDS011;8448;52.034;5.158;2022-08-16T12:38:51;27.45;;;24.65;;
16669;SDS011;8448;52.034;5.158;2022-08-16T12:41:19;27.85;;;24.95;;
16669;SDS011;8448;52.034;5.158;2022-08-16T12:43:47;25.20;;;22.65;;
16669;SDS011;8448;52.034;5.158;2022-08-16T12:46:14;25.30;;;22.60;;
16669;SDS011;8448;52.034;5.158;2022-08-16T12:48:41;28.88;;;23.67;;
16669;SDS011;8448;52.034;5.158;2022-08-16T12:51:25;25.40;;;20.98;;
16669;SDS011;8448;52.034;5.158;2022-08-16T12:53:58;20.70;;;18.48;;
16669;SDS011;8448;52.034;5.158;2022-08-16T12:56:28;22.45;;;20.10;;
16669;SDS011;8448;52.034;5.158;2022-08-16T12:58:58;21.98;;;19.67;;
16669;SDS011;8448;52.034;5.158;2022-08-16T13:01:28;21.30;;;16.65;;
16669;SDS011;8448;52.034;5.158;2022-08-16T13:03:58;20.20;;;17.98;;
16669;SDS011;8448;52.034;5.158;2022-08-16T13:06:26;20.98;;;18.75;;
16669;SDS011;8448;52.034;5.158;2022-08-16T13:08:54;23.55;;;17.75;;
16669;SDS011;8448;52.034;5.158;2022-08-16T13:11:28;22.63;;;19.23;;
16669;SDS011;8448;52.034;5.158;2022-08-16T13:13:58;24.48;;;19.42;;
16669;SDS011;8448;52.034;5.158;2022-08-16T13:16:25;18.73;;;16.83;;
16669;SDS011;8448;52.034;5.158;2022-08-16T13:18:52;26.33;;;19.98;;
16669;SDS011;8448;52.034;5.158;2022-08-16T13:21:20;19.98;;;16.73;;
16669;SDS011;8448;52.034;5.158;2022-08-16T13:23:48;22.70;;;17.40;;
16669;SDS011;8448;52.034;5.158;2022-08-16T13:26:15;21.27;;;17.63;;
16669;SDS011;8448;52.034;5.158;2022-08-16T13:28:44;20.02;;;17.88;;
16669;SDS011;8448;52.034;5.158;2022-08-16T13:31:11;19.08;;;17.23;;
16669;SDS011;8448;52.034;5.158;2022-08-16T13:33:40;22.63;;;19.40;;
16669;SDS011;8448;52.034;5.158;2022-08-16T13:36:08;23.10;;;20.65;;
16669;SDS011;8448;52.034;5.158;2022-08-16T13:38:36;21.98;;;19.75;;
16669;SDS011;8448;52.034;5.158;2022-08-16T13:41:05;21.50;;;18.02;;
16669;SDS011;8448;52.034;5.158;2022-08-16T13:43:33;21.30;;;18.80;;
16669;SDS011;8448;52.034;5.158;2022-08-16T13:46:02;24.00;;;20.70;;
16669;SDS011;8448;52.034;5.158;2022-08-16T13:48:30;29.88;;;22.00;;
16669;SDS011;8448;52.034;5.158;2022-08-16T13:50:58;23.73;;;20.75;;
16669;SDS011;8448;52.034;5.158;2022-08-16T13:53:28;20.17;;;16.83;;
16669;SDS011;8448;52.034;5.158;2022-08-16T13:55:55;18.77;;;16.27;;
16669;SDS011;8448;52.034;5.158;2022-08-16T13:58:23;17.00;;;15.15;;
16669;SDS011;8448;52.034;5.158;2022-08-16T14:00:50;22.70;;;19.65;;
16669;SDS011;8448;52.034;5.158;2022-08-16T14:03:19;24.95;;;20.40;;
16669;SDS011;8448;52.034;5.158;2022-08-16T14:05:46;22.10;;;19.70;;
16669;SDS011;8448;52.034;5.158;2022-08-16T14:08:13;23.40;;;20.65;;
16669;SDS011;8448;52.034;5.158;2022-08-16T14:10:41;19.63;;;17.13;;
16669;SDS011;8448;52.034;5.158;2022-08-16T14:13:08;15.52;;;13.80;;
16669;SDS011;8448;52.034;5.158;2022-08-16T14:15:36;13.77;;;12.18;;
16669;SDS011;8448;52.034;5.158;2022-08-16T14:18:03;14.70;;;13.00;;
16669;SDS011;8448;52.034;5.158;2022-08-16T14:20:32;12.32;;;11.02;;
16669;SDS011;8448;52.034;5.158;2022-08-16T14:22:59;13.52;;;10.93;;
16669;SDS011;8448;52.034;5.158;2022-08-16T14:25:26;17.90;;;16.00;;
16669;SDS011;8448;52.034;5.158;2022-08-16T14:27:54;16.77;;;15.05;;
16669;SDS011;8448;52.034;5.158;2022-08-16T14:30:21;16.88;;;13.35;;
16669;SDS011;8448;52.034;5.158;2022-08-16T14:32:49;18.38;;;13.32;;
16669;SDS011;8448;52.034;5.158;2022-08-16T14:35:18;15.43;;;13.93;;
16669;SDS011;8448;52.034;5.158;2022-08-16T14:37:48;14.63;;;12.20;;
16669;SDS011;8448;52.034;5.158;2022-08-16T14:40:17;12.05;;;9.80;;
16669;SDS011;8448;52.034;5.158;2022-08-16T14:42:45;11.10;;;9.82;;
16669;SDS011;8448;52.034;5.158;2022-08-16T14:45:14;13.07;;;11.68;;
16669;SDS011;8448;52.034;5.158;2022-08-16T14:47:42;14.25;;;10.48;;
16669;SDS011;8448;52.034;5.158;2022-08-16T14:50:11;10.43;;;9.20;;